sensor_id;sensor_type;location;lat;lon;timestamp;P1;durP1;ratioP1;P2;durP2;ratioP2
18142;SDS011;9197;50.930;3.140;2023-02-15T00:01:08;120.87;;;71.90;;
18142;SDS011;9197;50.930;3.140;2023-02-15T00:03:37;103.77;;;68.37;;
18142;SDS011;9197;50.930;3.140;2023-02-15T00:06:04;108.20;;;62.67;;
18142;SDS011;9197;50.930;3.140;2023-02-15T00:08:32;97.90;;;63.40;;
18142;SDS011;9197;50.930;3.140;2023-02-15T00:11:05;103.17;;;61.70;;
18142;SDS011;9197;50.930;3.140;2023-02-15T00:13:33;94.37;;;58.33;;
18142;SDS011;9197;50.930;3.140;2023-02-15T00:16:01;108.50;;;67.33;;
18142;SDS011;9197;50.930;3.140;2023-02-15T00:18:28;112.37;;;68.30;;
18142;SDS011;9197;50.930;3.140;2023-02-15T00:20:57;116.30;;;65.37;;
18142;SDS011;9197;50.930;3.140;2023-02-15T00:23:26;114.20;;;68.67;;
18142;SDS011;9197;50.930;3.140;2023-02-15T00:26:02;121.07;;;68.00;;
18142;SDS011;9197;50.930;3.140;2023-02-15T00:28:29;124.50;;;70.63;;
18142;SDS011;9197;50.930;3.140;2023-02-15T00:31:01;127.77;;;71.93;;
18142;SDS011;9197;50.930;3.140;2023-02-15T00:33:29;133.87;;;73.50;;
18142;SDS011;9197;50.930;3.140;2023-02-15T00:35:58;122.27;;;76.10;;
18142;SDS011;9197;50.930;3.140;2023-02-15T00:38:25;124.23;;;72.40;;
18142;SDS011;9197;50.930;3.140;2023-02-15T00:40:53;130.53;;;75.47;;
18142;SDS011;9197;50.930;3.140;2023-02-15T00:43:20;132.10;;;74.63;;
18142;SDS011;9197;50.930;3.140;2023-02-15T00:45:47;126.87;;;75.03;;
18142;SDS011;9197;50.930;3.140;2023-02-15T00:48:14;122.60;;;73.30;;
18142;SDS011;9197;50.930;3.140;2023-02-15T00:50:44;113.70;;;66.77;;
18142;SDS011;9197;50.930;3.140;2023-02-15T00:53:13;118.77;;;72.57;;
18142;SDS011;9197;50.930;3.140;2023-02-15T00:55:41;134.27;;;74.87;;
18142;SDS011;9197;50.930;3.140;2023-02-15T00:58:09;125.77;;;70.83;;
18142;SDS011;9197;50.930;3.140;2023-02-15T01:00:36;122.97;;;71.23;;
18142;SDS011;9197;50.930;3.140;2023-02-15T01:03:04;110.63;;;65.70;;
18142;SDS011;9197;50.930;3.140;2023-02-15T01:05:31;115.53;;;64.57;;
18142;SDS011;9197;50.930;3.140;2023-02-15T01:07:59;106.43;;;62.83;;
18142;SDS011;9197;50.930;3.140;2023-02-15T01:10:27;103.63;;;61.57;;
18142;SDS011;9197;50.930;3.140;2023-02-15T01:12:55;97.80;;;57.87;;
18142;SDS011;9197;50.930;3.140;2023-02-15T01:15:23;97.73;;;59.70;;
18142;SDS011;9197;50.930;3.140;2023-02-15T01:17:50;106.87;;;63.53;;
18142;SDS011;9197;50.930;3.140;2023-02-15T01:20:19;124.50;;;68.13;;
18142;SDS011;9197;50.930;3.140;2023-02-15T01:22:46;126.83;;;66.20;;
18142;SDS011;9197;50.930;3.140;2023-02-15T01:25:15;125.13;;;70.27;;
18142;SDS011;9197;50.930;3.140;2023-02-15T01:27:43;133.90;;;72.77;;
18142;SDS011;9197;50.930;3.140;2023-02-15T01:30:11;120.77;;;66.70;;
18142;SDS011;9197;50.930;3.140;2023-02-15T01:32:39;101.27;;;61.63;;
18142;SDS011;9197;50.930;3.140;2023-02-15T01:35:06;99.13;;;60.37;;
18142;SDS011;9197;50.930;3.140;2023-02-15T01:37:34;102.37;;;59.07;;
18142;SDS011;9197;50.930;3.140;2023-02-15T01:40:01;100.37;;;59.53;;
18142;SDS011;9197;50.930;3.140;2023-02-15T01:42:29;103.83;;;59.50;;
18142;SDS011;9197;50.930;3.140;2023-02-15T01:44:58;118.73;;;65.57;;
18142;SDS011;9197;50.930;3.140;2023-02-15T01:47:27;114.03;;;67.07;;
18142;SDS011;9197;50.930;3.140;2023-02-15T01:49:58;106.03;;;60.40;;
18142;SDS011;9197;50.930;3.140;2023-02-15T01:52:27;103.30;;;62.20;;
18142;SDS011;9197;50.930;3.140;2023-02-15T01:54:54;101.40;;;59.03;;
18142;SDS011;9197;50.930;3.140;2023-02-15T01:57:22;94.63;;;55.07;;
18142;SDS011;9197;50.930;3.140;2023-02-15T01:59:51;95.57;;;57.83;;
18142;SDS011;9197;50.930;3.140;2023-02-15T02:02:22;88.37;;;54.63;;
18142;SDS011;9197;50.930;3.140;2023-02-15T02:04:50;95.20;;;56.20;;
18142;SDS011;9197;50.930;3.140;2023-02-15T02:07:19;103.37;;;62.00;;
18142;SDS011;9197;50.930;3.140;2023-02-15T02:09:47;113.23;;;64.67;;
18142;SDS011;9197;50.930;3.140;2023-02-15T02:12:14;123.67;;;72.33;;
18142;SDS011;9197;50.930;3.140;2023-02-15T02:14:43;117.73;;;71.00;;
18142;SDS011;9197;50.930;3.140;2023-02-15T02:17:11;118.87;;;66.93;;
18142;SDS011;9197;50.930;3.140;2023-02-15T02:19:56;105.07;;;63.33;;
18142;SDS011;9197;50.930;3.140;2023-02-15T02:22:46;105.87;;;58.07;;
18142;SDS011;9197;50.930;3.140;2023-02-15T02:25:31;100.33;;;56.30;;
18142;SDS011;9197;50.930;3.140;2023-02-15T02:28:06;94.50;;;56.87;;
18142;SDS011;9197;50.930;3.140;2023-02-15T02:30:40;92.13;;;54.97;;
18142;SDS011;9197;50.930;3.140;2023-02-15T02:33:21;95.10;;;55.33;;
18142;SDS011;9197;50.930;3.140;2023-02-15T02:35:54;90.77;;;57.17;;
18142;SDS011;9197;50.930;3.140;2023-02-15T02:38:25;96.20;;;54.80;;
18142;SDS011;9197;50.930;3.140;2023-02-15T02:40:55;101.27;;;58.70;;
18142;SDS011;9197;50.930;3.140;2023-02-15T02:43:26;102.37;;;57.20;;
18142;SDS011;9197;50.930;3.140;2023-02-15T02:45:57;89.73;;;55.00;;
18142;SDS011;9197;50.930;3.140;2023-02-15T02:48:26;101.17;;;57.53;;
18142;SDS011;9197;50.930;3.140;2023-02-15T02:50:55;97.00;;;56.43;;
18142;SDS011;9197;50.930;3.140;2023-02-15T02:53:22;94.80;;;56.70;;
18142;SDS011;9197;50.930;3.140;2023-02-15T02:55:50;94.37;;;55.87;;
18142;SDS011;9197;50.930;3.140;2023-02-15T02:58:19;92.50;;;56.77;;
18142;SDS011;9197;50.930;3.140;2023-02-15T03:00:48;94.70;;;54.70;;
18142;SDS011;9197;50.930;3.140;2023-02-15T03:03:18;114.00;;;64.50;;
18142;SDS011;9197;50.930;3.140;2023-02-15T03:05:49;123.97;;;68.83;;
18142;SDS011;9197;50.930;3.140;2023-02-15T03:08:19;125.70;;;67.90;;
18142;SDS011;9197;50.930;3.140;2023-02-15T03:10:48;130.80;;;68.97;;
18142;SDS011;9197;50.930;3.140;2023-02-15T03:13:16;136.13;;;73.40;;
18142;SDS011;9197;50.930;3.140;2023-02-15T03:15:43;122.30;;;74.33;;
18142;SDS011;9197;50.930;3.140;2023-02-15T03:18:30;127.50;;;71.57;;
18142;SDS011;9197;50.930;3.140;2023-02-15T03:21:01;125.93;;;71.63;;
18142;SDS011;9197;50.930;3.140;2023-02-15T03:23:30;131.17;;;72.60;;
18142;SDS011;9197;50.930;3.140;2023-02-15T03:25:58;124.70;;;70.87;;
18142;SDS011;9197;50.930;3.140;2023-02-15T03:28:27;122.33;;;66.87;;
18142;SDS011;9197;50.930;3.140;2023-02-15T03:30:57;122.23;;;66.63;;
18142;SDS011;9197;50.930;3.140;2023-02-15T03:33:26;119.93;;;67.30;;
18142;SDS011;9197;50.930;3.140;2023-02-15T03:35:57;117.83;;;67.67;;
18142;SDS011;9197;50.930;3.140;2023-02-15T03:38:30;118.37;;;66.33;;
18142;SDS011;9197;50.930;3.140;2023-02-15T03:40:59;106.53;;;62.47;;
18142;SDS011;9197;50.930;3.140;2023-02-15T03:43:37;112.30;;;64.43;;
18142;SDS011;9197;50.930;3.140;2023-02-15T03:46:08;115.77;;;67.40;;
18142;SDS011;9197;50.930;3.140;2023-02-15T03:48:36;130.97;;;67.00;;
18142;SDS011;9197;50.930;3.140;2023-02-15T03:51:05;119.57;;;65.83;;
18142;SDS011;9197;50.930;3.140;2023-02-15T03:53:53;126.17;;;69.33;;
18142;SDS011;9197;50.930;3.140;2023-02-15T03:56:21;130.73;;;70.97;;
18142;SDS011;9197;50.930;3.140;2023-02-15T03:58:48;128.53;;;67.40;;
18142;SDS011;9197;50.930;3.140;2023-02-15T04:01:34;134.57;;;70.20;;
18142;SDS011;9197;50.930;3.140;2023-02-15T04:04:20;120.77;;;67.50;;
18142;SDS011;9197;50.930;3.140;2023-02-15T04:06:48;128.70;;;71.10;;
18142;SDS011;9197;50.930;3.140;2023-02-15T04:09:17;127.63;;;68.43;;
18142;SDS011;9197;50.930;3.140;2023-02-15T04:12:02;112.43;;;66.03;;
18142;SDS011;9197;50.930;3.140;2023-02-15T04:14:29;114.13;;;64.07;;
18142;SDS011;9197;50.930;3.140;2023-02-15T04:17:15;121.80;;;66.03;;
18142;SDS011;9197;50.930;3.140;2023-02-15T04:19:42;123.13;;;68.30;;
18142;SDS011;9197;50.930;3.140;2023-02-15T04:22:27;125.57;;;68.37;;
18142;SDS011;9197;50.930;3.140;2023-02-15T04:25:13;117.77;;;63.90;;
18142;SDS011;9197;50.930;3.140;2023-02-15T04:27:42;121.27;;;67.57;;
18142;SDS011;9197;50.930;3.140;2023-02-15T04:30:09;138.80;;;68.73;;
18142;SDS011;9197;50.930;3.140;2023-02-15T04:32:37;115.00;;;63.70;;
18142;SDS011;9197;50.930;3.140;2023-02-15T04:35:05;140.87;;;73.83;;
18142;SDS011;9197;50.930;3.140;2023-02-15T04:37:32;117.50;;;68.60;;
18142;SDS011;9197;50.930;3.140;2023-02-15T04:39:59;120.27;;;69.20;;
18142;SDS011;9197;50.930;3.140;2023-02-15T04:42:29;125.70;;;67.83;;
18142;SDS011;9197;50.930;3.140;2023-02-15T04:44:56;124.43;;;65.03;;
18142;SDS011;9197;50.930;3.140;2023-02-15T04:47:23;120.67;;;62.13;;
18142;SDS011;9197;50.930;3.140;2023-02-15T04:49:51;113.07;;;65.83;;
18142;SDS011;9197;50.930;3.140;2023-02-15T04:52:18;113.60;;;64.77;;
18142;SDS011;9197;50.930;3.140;2023-02-15T04:54:45;123.23;;;66.83;;
18142;SDS011;9197;50.930;3.140;2023-02-15T04:57:13;112.20;;;63.53;;
18142;SDS011;9197;50.930;3.140;2023-02-15T04:59:41;112.97;;;65.93;;
18142;SDS011;9197;50.930;3.140;2023-02-15T05:02:09;119.03;;;65.63;;
18142;SDS011;9197;50.930;3.140;2023-02-15T05:04:36;118.33;;;62.80;;
18142;SDS011;9197;50.930;3.140;2023-02-15T05:07:03;103.33;;;62.03;;
18142;SDS011;9197;50.930;3.140;2023-02-15T05:09:30;100.07;;;58.13;;
18142;SDS011;9197;50.930;3.140;2023-02-15T05:11:58;107.33;;;60.27;;
18142;SDS011;9197;50.930;3.140;2023-02-15T05:14:25;117.87;;;62.57;;
18142;SDS011;9197;50.930;3.140;2023-02-15T05:16:53;109.23;;;62.67;;
18142;SDS011;9197;50.930;3.140;2023-02-15T05:19:21;114.00;;;62.97;;
18142;SDS011;9197;50.930;3.140;2023-02-15T05:21:49;111.00;;;62.57;;
18142;SDS011;9197;50.930;3.140;2023-02-15T05:24:16;104.77;;;62.40;;
18142;SDS011;9197;50.930;3.140;2023-02-15T05:27:02;104.90;;;58.03;;
18142;SDS011;9197;50.930;3.140;2023-02-15T05:29:46;102.30;;;60.00;;
18142;SDS011;9197;50.930;3.140;2023-02-15T05:32:15;98.93;;;58.13;;
18142;SDS011;9197;50.930;3.140;2023-02-15T05:34:42;98.30;;;57.87;;
18142;SDS011;9197;50.930;3.140;2023-02-15T05:37:09;112.97;;;58.83;;
18142;SDS011;9197;50.930;3.140;2023-02-15T05:39:37;110.57;;;60.50;;
18142;SDS011;9197;50.930;3.140;2023-02-15T05:42:04;109.00;;;62.30;;
18142;SDS011;9197;50.930;3.140;2023-02-15T05:44:31;113.30;;;60.90;;
18142;SDS011;9197;50.930;3.140;2023-02-15T05:46:58;110.47;;;60.87;;
18142;SDS011;9197;50.930;3.140;2023-02-15T05:49:29;104.27;;;59.10;;
18142;SDS011;9197;50.930;3.140;2023-02-15T05:51:56;112.07;;;58.83;;
18142;SDS011;9197;50.930;3.140;2023-02-15T05:54:23;106.43;;;58.03;;
18142;SDS011;9197;50.930;3.140;2023-02-15T05:56:51;109.43;;;56.97;;
18142;SDS011;9197;50.930;3.140;2023-02-15T05:59:18;112.57;;;59.47;;
18142;SDS011;9197;50.930;3.140;2023-02-15T06:01:45;104.33;;;58.73;;
18142;SDS011;9197;50.930;3.140;2023-02-15T06:04:12;100.00;;;55.27;;
18142;SDS011;9197;50.930;3.140;2023-02-15T06:06:41;96.50;;;56.03;;
18142;SDS011;9197;50.930;3.140;2023-02-15T06:09:09;94.97;;;55.47;;
18142;SDS011;9197;50.930;3.140;2023-02-15T06:11:36;101.73;;;56.23;;
18142;SDS011;9197;50.930;3.140;2023-02-15T06:14:04;100.13;;;55.13;;
18142;SDS011;9197;50.930;3.140;2023-02-15T06:16:31;100.73;;;55.67;;
18142;SDS011;9197;50.930;3.140;2023-02-15T06:18:58;92.43;;;55.23;;
18142;SDS011;9197;50.930;3.140;2023-02-15T06:21:26;99.03;;;55.53;;
18142;SDS011;9197;50.930;3.140;2023-02-15T06:23:55;111.50;;;57.63;;
18142;SDS011;9197;50.930;3.140;2023-02-15T06:26:22;98.47;;;57.10;;
18142;SDS011;9197;50.930;3.140;2023-02-15T06:28:52;97.27;;;53.53;;
18142;SDS011;9197;50.930;3.140;2023-02-15T06:31:19;95.47;;;55.13;;
18142;SDS011;9197;50.930;3.140;2023-02-15T06:33:47;92.73;;;53.83;;
18142;SDS011;9197;50.930;3.140;2023-02-15T06:36:14;95.30;;;54.10;;
18142;SDS011;9197;50.930;3.140;2023-02-15T06:38:41;101.83;;;55.10;;
18142;SDS011;9197;50.930;3.140;2023-02-15T06:41:10;100.13;;;54.03;;
18142;SDS011;9197;50.930;3.140;2023-02-15T06:43:37;95.77;;;50.20;;
18142;SDS011;9197;50.930;3.140;2023-02-15T06:46:04;105.17;;;57.70;;
18142;SDS011;9197;50.930;3.140;2023-02-15T06:48:32;101.00;;;55.10;;
18142;SDS011;9197;50.930;3.140;2023-02-15T06:50:59;98.40;;;53.63;;
18142;SDS011;9197;50.930;3.140;2023-02-15T06:53:26;91.80;;;50.80;;
18142;SDS011;9197;50.930;3.140;2023-02-15T06:55:59;104.93;;;55.20;;
18142;SDS011;9197;50.930;3.140;2023-02-15T06:58:29;95.23;;;53.30;;
18142;SDS011;9197;50.930;3.140;2023-02-15T07:00:56;101.73;;;55.60;;
18142;SDS011;9197;50.930;3.140;2023-02-15T07:03:23;89.30;;;50.57;;
18142;SDS011;9197;50.930;3.140;2023-02-15T07:05:53;93.90;;;53.73;;
18142;SDS011;9197;50.930;3.140;2023-02-15T07:08:21;88.53;;;52.00;;
18142;SDS011;9197;50.930;3.140;2023-02-15T07:10:48;94.63;;;52.53;;
18142;SDS011;9197;50.930;3.140;2023-02-15T07:13:15;95.93;;;51.30;;
18142;SDS011;9197;50.930;3.140;2023-02-15T07:15:43;93.57;;;51.63;;
18142;SDS011;9197;50.930;3.140;2023-02-15T07:18:11;82.97;;;48.40;;
18142;SDS011;9197;50.930;3.140;2023-02-15T07:20:38;79.77;;;48.27;;
18142;SDS011;9197;50.930;3.140;2023-02-15T07:23:06;89.30;;;50.33;;
18142;SDS011;9197;50.930;3.140;2023-02-15T07:25:34;84.17;;;46.03;;
18142;SDS011;9197;50.930;3.140;2023-02-15T07:28:02;87.73;;;49.20;;
18142;SDS011;9197;50.930;3.140;2023-02-15T07:30:29;88.80;;;48.47;;
18142;SDS011;9197;50.930;3.140;2023-02-15T07:32:59;77.17;;;46.43;;
18142;SDS011;9197;50.930;3.140;2023-02-15T07:35:47;79.47;;;47.83;;
18142;SDS011;9197;50.930;3.140;2023-02-15T07:38:14;70.87;;;42.97;;
18142;SDS011;9197;50.930;3.140;2023-02-15T07:40:42;71.17;;;44.07;;
18142;SDS011;9197;50.930;3.140;2023-02-15T07:43:09;83.30;;;49.60;;
18142;SDS011;9197;50.930;3.140;2023-02-15T07:45:36;81.07;;;51.23;;
18142;SDS011;9197;50.930;3.140;2023-02-15T07:48:05;75.53;;;45.50;;
18142;SDS011;9197;50.930;3.140;2023-02-15T07:50:33;80.23;;;47.03;;
18142;SDS011;9197;50.930;3.140;2023-02-15T07:53:01;76.60;;;47.37;;
18142;SDS011;9197;50.930;3.140;2023-02-15T07:55:28;71.10;;;46.03;;
18142;SDS011;9197;50.930;3.140;2023-02-15T07:57:56;73.43;;;45.73;;
18142;SDS011;9197;50.930;3.140;2023-02-15T08:00:23;81.73;;;45.80;;
18142;SDS011;9197;50.930;3.140;2023-02-15T08:02:51;78.93;;;45.03;;
18142;SDS011;9197;50.930;3.140;2023-02-15T08:05:34;90.30;;;47.27;;
18142;SDS011;9197;50.930;3.140;2023-02-15T08:08:01;69.67;;;44.73;;
18142;SDS011;9197;50.930;3.140;2023-02-15T08:10:28;70.30;;;43.33;;
18142;SDS011;9197;50.930;3.140;2023-02-15T08:13:10;76.93;;;44.90;;
18142;SDS011;9197;50.930;3.140;2023-02-15T08:15:37;64.80;;;39.87;;
18142;SDS011;9197;50.930;3.140;2023-02-15T08:18:04;62.53;;;39.37;;
18142;SDS011;9197;50.930;3.140;2023-02-15T08:20:31;68.13;;;41.00;;
18142;SDS011;9197;50.930;3.140;2023-02-15T08:23:00;64.00;;;40.90;;
18142;SDS011;9197;50.930;3.140;2023-02-15T08:25:27;58.77;;;38.30;;
18142;SDS011;9197;50.930;3.140;2023-02-15T08:27:56;61.47;;;41.23;;
18142;SDS011;9197;50.930;3.140;2023-02-15T08:30:23;60.57;;;38.10;;
18142;SDS011;9197;50.930;3.140;2023-02-15T08:32:50;56.00;;;39.13;;
18142;SDS011;9197;50.930;3.140;2023-02-15T08:35:17;62.47;;;39.60;;
18142;SDS011;9197;50.930;3.140;2023-02-15T08:37:45;61.00;;;38.73;;
18142;SDS011;9197;50.930;3.140;2023-02-15T08:40:13;58.97;;;38.30;;
18142;SDS011;9197;50.930;3.140;2023-02-15T08:42:41;57.20;;;39.53;;
18142;SDS011;9197;50.930;3.140;2023-02-15T08:45:08;55.43;;;37.87;;
18142;SDS011;9197;50.930;3.140;2023-02-15T08:47:35;59.63;;;39.10;;
18142;SDS011;9197;50.930;3.140;2023-02-15T08:50:03;52.50;;;37.53;;
18142;SDS011;9197;50.930;3.140;2023-02-15T08:52:30;53.00;;;35.47;;
18142;SDS011;9197;50.930;3.140;2023-02-15T08:54:57;55.57;;;35.27;;
18142;SDS011;9197;50.930;3.140;2023-02-15T08:57:26;50.67;;;34.77;;
18142;SDS011;9197;50.930;3.140;2023-02-15T08:59:54;47.53;;;34.30;;
18142;SDS011;9197;50.930;3.140;2023-02-15T09:02:21;50.20;;;33.50;;
18142;SDS011;9197;50.930;3.140;2023-02-15T09:04:48;47.93;;;32.97;;
18142;SDS011;9197;50.930;3.140;2023-02-15T09:07:16;48.90;;;32.77;;
18142;SDS011;9197;50.930;3.140;2023-02-15T09:09:44;42.40;;;32.47;;
18142;SDS011;9197;50.930;3.140;2023-02-15T09:12:12;43.90;;;31.27;;
18142;SDS011;9197;50.930;3.140;2023-02-15T09:14:41;46.53;;;33.13;;
18142;SDS011;9197;50.930;3.140;2023-02-15T09:17:08;41.73;;;31.37;;
18142;SDS011;9197;50.930;3.140;2023-02-15T09:19:35;46.87;;;32.33;;
18142;SDS011;9197;50.930;3.140;2023-02-15T09:22:02;43.70;;;30.73;;
18142;SDS011;9197;50.930;3.140;2023-02-15T09:24:31;43.23;;;32.53;;
18142;SDS011;9197;50.930;3.140;2023-02-15T09:26:58;41.87;;;31.53;;
18142;SDS011;9197;50.930;3.140;2023-02-15T09:29:26;48.07;;;32.63;;
18142;SDS011;9197;50.930;3.140;2023-02-15T09:31:54;44.00;;;32.03;;
18142;SDS011;9197;50.930;3.140;2023-02-15T09:34:22;47.07;;;32.70;;
18142;SDS011;9197;50.930;3.140;2023-02-15T09:36:49;44.27;;;32.27;;
18142;SDS011;9197;50.930;3.140;2023-02-15T09:39:17;48.60;;;34.37;;
18142;SDS011;9197;50.930;3.140;2023-02-15T09:42:04;43.37;;;31.97;;
18142;SDS011;9197;50.930;3.140;2023-02-15T09:44:38;43.27;;;32.90;;
18142;SDS011;9197;50.930;3.140;2023-02-15T09:47:17;41.10;;;32.90;;
18142;SDS011;9197;50.930;3.140;2023-02-15T09:49:49;42.37;;;32.43;;
18142;SDS011;9197;50.930;3.140;2023-02-15T09:52:22;41.90;;;31.80;;
18142;SDS011;9197;50.930;3.140;2023-02-15T09:54:57;49.67;;;33.90;;
18142;SDS011;9197;50.930;3.140;2023-02-15T09:57:29;46.13;;;32.83;;
18142;SDS011;9197;50.930;3.140;2023-02-15T10:00:02;47.43;;;31.50;;
18142;SDS011;9197;50.930;3.140;2023-02-15T10:02:37;50.07;;;34.37;;
18142;SDS011;9197;50.930;3.140;2023-02-15T10:05:10;45.10;;;32.23;;
18142;SDS011;9197;50.930;3.140;2023-02-15T10:07:51;44.77;;;34.40;;
18142;SDS011;9197;50.930;3.140;2023-02-15T10:10:24;48.77;;;32.93;;
18142;SDS011;9197;50.930;3.140;2023-02-15T10:12:56;48.97;;;31.37;;
18142;SDS011;9197;50.930;3.140;2023-02-15T10:15:28;49.10;;;33.87;;
18142;SDS011;9197;50.930;3.140;2023-02-15T10:18:04;47.07;;;34.87;;
18142;SDS011;9197;50.930;3.140;2023-02-15T10:20:35;45.77;;;32.83;;
18142;SDS011;9197;50.930;3.140;2023-02-15T10:23:13;49.83;;;32.77;;
18142;SDS011;9197;50.930;3.140;2023-02-15T10:25:45;49.10;;;34.90;;
18142;SDS011;9197;50.930;3.140;2023-02-15T10:28:15;45.40;;;32.43;;
18142;SDS011;9197;50.930;3.140;2023-02-15T10:30:44;46.03;;;32.07;;
18142;SDS011;9197;50.930;3.140;2023-02-15T10:33:26;48.80;;;34.03;;
18142;SDS011;9197;50.930;3.140;2023-02-15T10:36:00;46.07;;;33.43;;
18142;SDS011;9197;50.930;3.140;2023-02-15T10:38:32;50.80;;;33.83;;
18142;SDS011;9197;50.930;3.140;2023-02-15T10:41:03;45.50;;;33.37;;
18142;SDS011;9197;50.930;3.140;2023-02-15T10:43:44;43.97;;;32.93;;
18142;SDS011;9197;50.930;3.140;2023-02-15T10:46:19;43.33;;;33.30;;
18142;SDS011;9197;50.930;3.140;2023-02-15T10:48:59;46.67;;;33.63;;
18142;SDS011;9197;50.930;3.140;2023-02-15T10:51:33;43.30;;;34.07;;
18142;SDS011;9197;50.930;3.140;2023-02-15T10:54:07;46.07;;;34.40;;
18142;SDS011;9197;50.930;3.140;2023-02-15T10:56:36;45.57;;;32.43;;
18142;SDS011;9197;50.930;3.140;2023-02-15T10:59:12;42.97;;;33.30;;
18142;SDS011;9197;50.930;3.140;2023-02-15T11:01:45;45.63;;;34.50;;
18142;SDS011;9197;50.930;3.140;2023-02-15T11:04:27;44.37;;;32.43;;
18142;SDS011;9197;50.930;3.140;2023-02-15T11:07:00;45.07;;;34.07;;
18142;SDS011;9197;50.930;3.140;2023-02-15T11:09:33;50.67;;;35.73;;
18142;SDS011;9197;50.930;3.140;2023-02-15T11:12:03;49.57;;;35.13;;
18142;SDS011;9197;50.930;3.140;2023-02-15T11:14:37;42.60;;;31.60;;
18142;SDS011;9197;50.930;3.140;2023-02-15T11:17:06;48.83;;;32.23;;
18142;SDS011;9197;50.930;3.140;2023-02-15T11:19:38;49.90;;;35.60;;
18142;SDS011;9197;50.930;3.140;2023-02-15T11:22:09;50.73;;;33.70;;
18142;SDS011;9197;50.930;3.140;2023-02-15T11:24:39;50.20;;;33.03;;
18142;SDS011;9197;50.930;3.140;2023-02-15T11:27:12;47.63;;;33.80;;
18142;SDS011;9197;50.930;3.140;2023-02-15T11:29:45;42.83;;;32.73;;
18142;SDS011;9197;50.930;3.140;2023-02-15T11:32:17;46.53;;;34.40;;
18142;SDS011;9197;50.930;3.140;2023-02-15T11:34:49;44.83;;;33.83;;
18142;SDS011;9197;50.930;3.140;2023-02-15T11:37:18;49.87;;;34.20;;
18142;SDS011;9197;50.930;3.140;2023-02-15T11:39:46;49.50;;;34.87;;
18142;SDS011;9197;50.930;3.140;2023-02-15T11:42:18;47.93;;;35.87;;
18142;SDS011;9197;50.930;3.140;2023-02-15T11:44:56;50.67;;;36.70;;
18142;SDS011;9197;50.930;3.140;2023-02-15T11:47:26;48.23;;;35.23;;
18142;SDS011;9197;50.930;3.140;2023-02-15T11:49:54;44.27;;;33.80;;
18142;SDS011;9197;50.930;3.140;2023-02-15T11:52:22;42.93;;;33.43;;
18142;SDS011;9197;50.930;3.140;2023-02-15T11:54:50;42.33;;;33.40;;
18142;SDS011;9197;50.930;3.140;2023-02-15T11:57:19;45.13;;;33.57;;
18142;SDS011;9197;50.930;3.140;2023-02-15T11:59:49;43.33;;;33.00;;
18142;SDS011;9197;50.930;3.140;2023-02-15T12:02:19;46.70;;;31.87;;
18142;SDS011;9197;50.930;3.140;2023-02-15T12:04:48;45.47;;;35.47;;
18142;SDS011;9197;50.930;3.140;2023-02-15T12:07:19;39.93;;;32.27;;
18142;SDS011;9197;50.930;3.140;2023-02-15T12:09:48;43.10;;;33.67;;
18142;SDS011;9197;50.930;3.140;2023-02-15T12:12:21;50.17;;;36.30;;
18142;SDS011;9197;50.930;3.140;2023-02-15T12:14:49;45.10;;;34.97;;
18142;SDS011;9197;50.930;3.140;2023-02-15T12:17:17;46.53;;;35.87;;
18142;SDS011;9197;50.930;3.140;2023-02-15T12:19:44;45.63;;;35.70;;
18142;SDS011;9197;50.930;3.140;2023-02-15T12:22:19;44.70;;;35.83;;
18142;SDS011;9197;50.930;3.140;2023-02-15T12:24:49;46.87;;;34.10;;
18142;SDS011;9197;50.930;3.140;2023-02-15T12:27:17;48.93;;;35.10;;
18142;SDS011;9197;50.930;3.140;2023-02-15T12:29:47;46.37;;;35.50;;
18142;SDS011;9197;50.930;3.140;2023-02-15T12:32:16;45.67;;;34.47;;
18142;SDS011;9197;50.930;3.140;2023-02-15T12:34:44;47.10;;;34.07;;
18142;SDS011;9197;50.930;3.140;2023-02-15T12:37:15;45.43;;;36.07;;
18142;SDS011;9197;50.930;3.140;2023-02-15T12:39:52;47.00;;;36.70;;
18142;SDS011;9197;50.930;3.140;2023-02-15T12:42:20;47.23;;;36.70;;
18142;SDS011;9197;50.930;3.140;2023-02-15T12:44:56;46.70;;;33.90;;
18142;SDS011;9197;50.930;3.140;2023-02-15T12:47:23;46.50;;;33.60;;
18142;SDS011;9197;50.930;3.140;2023-02-15T12:50:08;45.37;;;35.53;;
18142;SDS011;9197;50.930;3.140;2023-02-15T12:52:42;47.87;;;35.07;;
18142;SDS011;9197;50.930;3.140;2023-02-15T12:55:18;46.30;;;33.10;;
18142;SDS011;9197;50.930;3.140;2023-02-15T12:57:45;45.07;;;34.33;;
18142;SDS011;9197;50.930;3.140;2023-02-15T13:00:26;44.40;;;33.00;;
18142;SDS011;9197;50.930;3.140;2023-02-15T13:02:57;47.20;;;32.97;;
18142;SDS011;9197;50.930;3.140;2023-02-15T13:05:25;44.00;;;33.87;;
18142;SDS011;9197;50.930;3.140;2023-02-15T13:07:56;44.83;;;32.87;;
18142;SDS011;9197;50.930;3.140;2023-02-15T13:10:26;45.30;;;32.47;;
18142;SDS011;9197;50.930;3.140;2023-02-15T13:12:53;42.67;;;32.30;;
18142;SDS011;9197;50.930;3.140;2023-02-15T13:15:23;43.83;;;34.60;;
18142;SDS011;9197;50.930;3.140;2023-02-15T13:17:52;43.27;;;31.50;;
18142;SDS011;9197;50.930;3.140;2023-02-15T13:20:19;42.90;;;31.47;;
18142;SDS011;9197;50.930;3.140;2023-02-15T13:22:49;43.70;;;33.03;;
18142;SDS011;9197;50.930;3.140;2023-02-15T13:25:18;45.53;;;35.07;;
18142;SDS011;9197;50.930;3.140;2023-02-15T13:27:48;43.50;;;32.53;;
18142;SDS011;9197;50.930;3.140;2023-02-15T13:30:20;45.07;;;32.67;;
18142;SDS011;9197;50.930;3.140;2023-02-15T13:32:51;47.87;;;32.87;;
18142;SDS011;9197;50.930;3.140;2023-02-15T13:35:19;43.23;;;33.77;;
18142;SDS011;9197;50.930;3.140;2023-02-15T13:40:36;41.13;;;32.13;;
18142;SDS011;9197;50.930;3.140;2023-02-15T13:43:10;50.70;;;35.13;;
18142;SDS011;9197;50.930;3.140;2023-02-15T13:45:44;41.47;;;31.37;;
18142;SDS011;9197;50.930;3.140;2023-02-15T13:48:19;42.10;;;33.67;;
18142;SDS011;9197;50.930;3.140;2023-02-15T13:50:52;42.17;;;32.20;;
18142;SDS011;9197;50.930;3.140;2023-02-15T13:53:31;40.80;;;31.73;;
18142;SDS011;9197;50.930;3.140;2023-02-15T13:56:01;44.73;;;33.23;;
18142;SDS011;9197;50.930;3.140;2023-02-15T13:58:39;47.50;;;32.60;;
18142;SDS011;9197;50.930;3.140;2023-02-15T14:01:12;39.87;;;31.50;;
18142;SDS011;9197;50.930;3.140;2023-02-15T14:03:51;45.33;;;32.33;;
18142;SDS011;9197;50.930;3.140;2023-02-15T14:06:33;41.93;;;32.60;;
18142;SDS011;9197;50.930;3.140;2023-02-15T14:09:09;43.60;;;32.50;;
18142;SDS011;9197;50.930;3.140;2023-02-15T14:11:40;41.33;;;30.73;;
18142;SDS011;9197;50.930;3.140;2023-02-15T14:16:57;40.60;;;30.90;;
18142;SDS011;9197;50.930;3.140;2023-02-15T14:19:26;41.80;;;31.10;;
18142;SDS011;9197;50.930;3.140;2023-02-15T14:21:57;40.93;;;32.77;;
18142;SDS011;9197;50.930;3.140;2023-02-15T14:24:30;45.70;;;33.20;;
18142;SDS011;9197;50.930;3.140;2023-02-15T14:27:01;44.90;;;33.27;;
18142;SDS011;9197;50.930;3.140;2023-02-15T14:29:48;46.03;;;33.27;;
18142;SDS011;9197;50.930;3.140;2023-02-15T14:32:20;43.50;;;32.57;;
18142;SDS011;9197;50.930;3.140;2023-02-15T14:34:49;48.23;;;34.87;;
18142;SDS011;9197;50.930;3.140;2023-02-15T14:37:19;39.07;;;32.27;;
18142;SDS011;9197;50.930;3.140;2023-02-15T14:39:48;45.30;;;33.87;;
18142;SDS011;9197;50.930;3.140;2023-02-15T14:42:36;40.10;;;32.03;;
18142;SDS011;9197;50.930;3.140;2023-02-15T14:45:13;43.80;;;33.33;;
18142;SDS011;9197;50.930;3.140;2023-02-15T14:47:44;43.53;;;31.30;;
18142;SDS011;9197;50.930;3.140;2023-02-15T14:53:16;43.87;;;31.67;;
18142;SDS011;9197;50.930;3.140;2023-02-15T14:55:44;44.10;;;32.10;;